createdAt,value
2023-01-13T00:00:44.288Z,20.50
2023-01-13T00:06:21.369Z,20.00
2023-01-13T00:08:59.854Z,20.90
2023-01-13T00:11:45.732Z,19.90
2023-01-13T00:15:27.049Z,19.60
2023-01-13T00:18:22.075Z,20.50
2023-01-13T00:21:30.875Z,18.70
2023-01-13T00:27:37.075Z,17.80
2023-01-13T00:31:27.096Z,17.80
2023-01-13T00:34:09.035Z,18.60
2023-01-13T00:40:39.940Z,18.10
2023-01-13T00:47:13.541Z,18.30
2023-01-13T00:49:45.261Z,18.10
2023-01-13T00:52:22.735Z,18.60
2023-01-13T00:55:36.478Z,16.20
2023-01-13T00:58:08.240Z,16.50
2023-01-13T01:01:12.746Z,17.50
2023-01-13T01:07:46.917Z,18.50
2023-01-13T01:10:55.177Z,18.30
2023-01-13T01:13:29.200Z,18.10
2023-01-13T01:16:25.976Z,18.60
2023-01-13T01:19:07.999Z,17.40
2023-01-13T01:21:43.705Z,17.10
2023-01-13T01:24:13.948Z,16.90
2023-01-13T01:26:57.964Z,16.90
2023-01-13T01:29:47.463Z,17.50
2023-01-13T01:32:23.226Z,15.50
2023-01-13T01:35:19.105Z,15.30
2023-01-13T01:38:22.189Z,15.60
2023-01-13T01:41:08.238Z,15.70
2023-01-13T01:44:21.143Z,16.20
2023-01-13T01:47:06.449Z,16.60
2023-01-13T01:49:34.419Z,17.40
2023-01-13T01:52:28.268Z,17.50
2023-01-13T01:55:25.087Z,18.20
2023-01-13T01:58:19.241Z,17.00
2023-01-13T02:01:11.009Z,17.50
2023-01-13T02:03:44.024Z,17.30
2023-01-13T02:06:20.275Z,17.10
2023-01-13T02:09:18.363Z,16.90
2023-01-13T02:12:22.840Z,17.80
2023-01-13T02:15:07.452Z,17.50
2023-01-13T02:17:56.380Z,17.90
2023-01-13T02:21:12.399Z,18.40
2023-01-13T02:24:10.231Z,18.40
2023-01-13T02:27:32.385Z,17.70
2023-01-13T02:30:52.536Z,18.10
2023-01-13T02:33:47.055Z,18.40
2023-01-13T02:36:43.278Z,17.80
2023-01-13T02:39:39.498Z,16.50
2023-01-13T02:45:56.623Z,17.50
2023-01-13T02:48:47.406Z,17.40
2023-01-13T02:51:17.433Z,16.50
2023-01-13T02:54:00.079Z,17.70
2023-01-13T02:57:10.887Z,17.00
2023-01-13T03:00:27.184Z,15.90
2023-01-13T03:03:07.457Z,15.40
2023-01-13T03:08:48.307Z,15.00
2023-01-13T03:11:44.606Z,14.90
2023-01-13T03:15:03.576Z,14.80
2023-01-13T03:22:12.254Z,15.00
2023-01-13T03:28:00.409Z,15.40
2023-01-13T03:29:36.005Z,16.30
2023-01-13T03:32:52.262Z,16.40
2023-01-13T03:36:03.265Z,16.10
2023-01-13T03:39:06.515Z,15.10
2023-01-13T03:42:18.176Z,15.50
2023-01-13T03:45:26.245Z,15.50
2023-01-13T03:48:06.441Z,15.60
2023-01-13T03:51:43.979Z,15.60
2023-01-13T03:55:12.251Z,14.80
2023-01-13T03:58:34.828Z,14.40
2023-01-13T04:04:11.445Z,15.40
2023-01-13T04:09:52.354Z,15.50
2023-01-13T04:13:02.152Z,15.50
2023-01-13T04:15:56.121Z,15.90
2023-01-13T04:19:14.478Z,16.90
2023-01-13T04:21:58.848Z,16.00
2023-01-13T04:24:35.757Z,16.20
2023-01-13T04:33:56.701Z,16.30
2023-01-13T04:36:56.444Z,17.00
2023-01-13T04:39:29.299Z,18.00
2023-01-13T04:45:24.894Z,18.90
2023-01-13T04:47:58.238Z,18.60
2023-01-13T04:50:36.329Z,18.30
2023-01-13T04:53:30.609Z,18.80
2023-01-13T04:56:04.874Z,18.60
2023-01-13T04:58:32.447Z,18.30
2023-01-13T05:01:02.354Z,18.60
2023-01-13T05:03:44.437Z,19.40
2023-01-13T05:06:29.545Z,18.10
2023-01-13T05:09:05.975Z,18.70
2023-01-13T05:15:10.795Z,17.90
2023-01-13T05:17:46.075Z,18.60
2023-01-13T05:20:30.475Z,19.30
2023-01-13T05:24:00.463Z,19.00
2023-01-13T05:29:28.595Z,19.00
2023-01-13T05:32:07.039Z,19.30
2023-01-13T05:34:43.932Z,20.10
2023-01-13T05:37:13.473Z,19.20
2023-01-13T05:40:02.142Z,20.40
2023-01-13T05:43:01.839Z,20.00
2023-01-13T05:45:53.030Z,19.40
2023-01-13T05:48:29.349Z,19.80
2023-01-13T05:51:33.553Z,19.40
2023-01-13T05:54:04.804Z,19.70
2023-01-13T05:56:32.596Z,19.70
2023-01-13T05:59:06.891Z,19.80
2023-01-13T06:01:37.624Z,20.40
2023-01-13T06:04:06.238Z,21.50
2023-01-13T06:06:33.966Z,22.40
2023-01-13T06:09:38.405Z,22.30
2023-01-13T06:12:19.208Z,23.00
2023-01-13T06:15:03.173Z,23.40
2023-01-13T06:17:33.573Z,23.90
2023-01-13T06:20:00.903Z,24.30
2023-01-13T06:22:33.887Z,24.20
2023-01-13T06:25:09.625Z,24.00
2023-01-13T06:27:49.541Z,23.90
2023-01-13T06:30:20.039Z,23.20
2023-01-13T06:33:36.561Z,23.90
2023-01-13T06:36:38.361Z,23.30
2023-01-13T06:39:32.401Z,23.10
2023-01-13T06:42:18.797Z,23.50
2023-01-13T06:44:48.332Z,23.70
2023-01-13T06:47:15.922Z,23.30
2023-01-13T06:50:00.193Z,23.20
2023-01-13T06:52:35.897Z,23.20
2023-01-13T06:55:37.035Z,23.10
2023-01-13T06:58:15.236Z,23.70
2023-01-13T07:00:51.981Z,23.50
2023-01-13T07:03:24.823Z,23.30
2023-01-13T07:05:59.553Z,22.80
2023-01-13T07:08:54.265Z,22.70
2023-01-13T07:11:22.577Z,23.00
2023-01-13T07:21:22.466Z,21.60
2023-01-13T07:23:53.769Z,21.10
2023-01-13T07:27:48.234Z,21.40
2023-01-13T07:31:49.988Z,20.70
2023-01-13T07:33:34.826Z,21.10
2023-01-13T07:36:47.670Z,21.20
2023-01-13T07:42:54.710Z,21.80
2023-01-13T07:45:33.492Z,21.70
2023-01-13T07:51:51.356Z,23.00
2023-01-13T07:54:39.059Z,24.20
2023-01-13T08:00:53.888Z,23.90
2023-01-13T08:03:29.651Z,24.00
2023-01-13T08:06:04.616Z,23.70
2023-01-13T08:09:00.226Z,23.10
2023-01-13T08:12:53.268Z,22.70
2023-01-13T08:16:01.912Z,21.30
2023-01-13T08:18:59.974Z,21.80
2023-01-13T08:21:43.395Z,22.50
2023-01-13T08:27:31.954Z,23.50
2023-01-13T08:34:20.680Z,24.70
2023-01-13T08:37:04.129Z,24.80
2023-01-13T08:40:24.383Z,24.60
2023-01-13T08:58:30.727Z,23.90
2023-01-13T09:01:40.989Z,23.10
2023-01-13T09:08:29.076Z,23.10
2023-01-13T09:11:12.693Z,23.00
2023-01-13T09:15:17.097Z,22.00
2023-01-13T09:17:57.085Z,22.30
2023-01-13T09:24:14.669Z,21.90
2023-01-13T09:30:30.313Z,20.40
2023-01-13T09:33:54.106Z,20.40
2023-01-13T09:44:05.300Z,18.70
2023-01-13T09:46:45.539Z,18.50
2023-01-13T09:49:33.442Z,18.60
2023-01-13T09:52:42.110Z,17.30
2023-01-13T09:55:26.996Z,16.50
2023-01-13T09:58:30.849Z,16.00
2023-01-13T10:01:42.542Z,14.90
2023-01-13T10:08:24.272Z,12.90
2023-01-13T10:18:16.333Z,10.70
2023-01-13T10:25:25.412Z,9.30
2023-01-13T10:28:45.040Z,9.00
2023-01-13T10:32:08.020Z,8.10
2023-01-13T10:38:14.917Z,6.80
2023-01-13T10:40:58.828Z,5.70
2023-01-13T10:47:31.360Z,5.50
2023-01-13T10:50:15.340Z,3.20
2023-01-13T10:53:21.812Z,2.60
2023-01-13T10:56:43.843Z,2.80
2023-01-13T11:00:44.600Z,2.40
2023-01-13T11:04:08.959Z,2.10
2023-01-13T11:06:46.270Z,2.20
2023-01-13T11:13:09.326Z,1.00
2023-01-13T11:15:58.013Z,1.00
2023-01-13T11:19:26.070Z,1.10
2023-01-13T11:21:55.458Z,1.00
2023-01-13T11:25:15.533Z,1.00
2023-01-13T11:28:41.818Z,1.00
2023-01-13T11:31:29.418Z,1.00
2023-01-13T11:34:24.761Z,1.00
2023-01-13T11:43:30.349Z,1.00
2023-01-13T11:46:03.144Z,1.00
2023-01-13T11:49:14.590Z,1.00
2023-01-13T11:55:53.686Z,1.00
2023-01-13T11:59:11.157Z,1.00
2023-01-13T12:02:33.779Z,1.00
2023-01-13T12:05:59.923Z,1.00
2023-01-13T12:09:14.841Z,1.00
2023-01-13T12:13:23.269Z,1.00
2023-01-13T12:16:03.688Z,1.00
2023-01-13T12:33:21.498Z,1.00
2023-01-13T12:36:22.760Z,1.00
2023-01-13T12:48:18.190Z,1.00
2023-01-13T12:50:45.951Z,1.00
2023-01-13T12:55:01.876Z,1.00
2023-01-13T12:57:40.994Z,1.00
2023-01-13T13:01:26.366Z,1.00
2023-01-13T13:04:30.871Z,1.00
2023-01-13T13:07:09.665Z,1.00
2023-01-13T13:13:45.977Z,1.00
2023-01-13T13:17:02.715Z,1.00
2023-01-13T13:22:57.557Z,1.00
2023-01-13T13:29:39.854Z,1.00
2023-01-13T13:33:39.173Z,1.00
2023-01-13T13:41:09.623Z,1.00
2023-01-13T13:44:22.686Z,1.00
2023-01-13T13:57:33.787Z,1.00
2023-01-13T13:59:41.017Z,1.00
2023-01-13T14:02:30.847Z,1.00
2023-01-13T14:05:36.449Z,1.00
2023-01-13T14:08:12.457Z,1.00
2023-01-13T14:11:11.190Z,1.00
2023-01-13T14:14:00.930Z,1.00
2023-01-13T15:23:58.200Z,1.00
2023-01-13T15:26:59.119Z,1.00
2023-01-13T15:29:36.717Z,1.00
2023-01-13T15:32:26.946Z,1.00
2023-01-13T15:34:54.784Z,1.00
2023-01-13T15:37:40.187Z,1.00
2023-01-13T15:40:43.516Z,1.00
2023-01-13T15:43:40.088Z,1.00
2023-01-13T15:49:16.059Z,1.00
2023-01-13T15:51:50.553Z,1.00
2023-01-13T15:54:25.048Z,1.00
2023-01-13T15:56:55.446Z,1.00
2023-01-13T15:59:26.439Z,1.00
2023-01-13T16:02:44.111Z,1.00
2023-01-13T16:05:34.321Z,1.00
2023-01-13T16:08:09.064Z,1.00
2023-01-13T16:10:43.813Z,1.00
2023-01-13T16:13:42.359Z,1.00
2023-01-13T16:16:39.580Z,1.00
2023-01-13T16:19:29.658Z,1.00
2023-01-13T16:22:28.331Z,1.00
2023-01-13T16:25:14.819Z,1.00
2023-01-13T16:31:32.458Z,1.00
2023-01-13T16:41:05.978Z,1.00
2023-01-13T16:44:12.266Z,1.00
2023-01-13T16:46:51.635Z,1.00
2023-01-13T16:49:30.572Z,1.00
2023-01-13T16:52:06.840Z,1.90
2023-01-13T16:54:55.755Z,2.40
2023-01-13T16:57:36.198Z,2.80
2023-01-13T17:00:15.010Z,3.90
2023-01-13T17:03:08.331Z,4.60
2023-01-13T17:05:43.867Z,4.70
2023-01-13T17:08:40.274Z,5.00
2023-01-13T17:11:13.291Z,4.80
2023-01-13T17:13:43.649Z,4.70
2023-01-13T17:16:18.906Z,5.30
2023-01-13T17:18:48.321Z,6.70
2023-01-13T17:21:15.611Z,6.50
2023-01-13T17:23:43.366Z,6.80
2023-01-13T17:26:32.319Z,7.50
2023-01-13T17:29:00.687Z,8.40
2023-01-13T17:31:28.304Z,9.80
2023-01-13T17:34:07.019Z,10.30
2023-01-13T17:36:36.429Z,11.60
2023-01-13T17:39:04.929Z,12.10
2023-01-13T17:41:36.272Z,12.10
2023-01-13T17:44:09.354Z,12.30
2023-01-13T17:46:39.565Z,12.40
2023-01-13T17:49:06.680Z,12.50
2023-01-13T17:51:39.797Z,12.90
2023-01-13T17:54:07.000Z,13.40
2023-01-13T17:56:34.876Z,13.80
2023-01-13T17:59:11.668Z,14.40
2023-01-13T18:01:44.253Z,14.50
2023-01-13T18:04:18.807Z,15.40
2023-01-13T18:06:46.019Z,16.10
2023-01-13T18:09:13.853Z,16.50
2023-01-13T18:12:07.150Z,17.10
2023-01-13T18:14:48.620Z,17.30
2023-01-13T18:17:22.928Z,17.80
2023-01-13T18:20:13.659Z,18.20
2023-01-13T18:23:13.540Z,18.60
2023-01-13T18:26:00.296Z,18.90
2023-01-13T18:28:33.883Z,19.60
2023-01-13T18:31:18.940Z,21.50
2023-01-13T18:33:58.311Z,21.40
2023-01-13T18:36:34.769Z,21.50
2023-01-13T18:42:55.637Z,22.30
2023-01-13T18:45:25.998Z,22.20
2023-01-13T18:48:00.837Z,22.50
2023-01-13T18:50:57.025Z,22.70
2023-01-13T18:53:28.730Z,23.80
2023-01-13T18:56:27.711Z,23.30
2023-01-13T19:01:55.077Z,23.90
2023-01-13T19:04:22.232Z,23.80
2023-01-13T19:07:03.932Z,24.90
2023-01-13T19:09:31.792Z,24.50
2023-01-13T19:12:01.307Z,25.40
2023-01-13T19:15:01.031Z,25.80
2023-01-13T19:17:37.638Z,26.30
2023-01-13T19:20:30.424Z,26.60
2023-01-13T19:23:14.529Z,26.70
2023-01-13T19:26:09.862Z,26.80
2023-01-13T19:31:54.151Z,26.70
2023-01-13T19:34:27.204Z,27.10
2023-01-13T19:37:09.609Z,26.70
2023-01-13T19:39:54.755Z,26.70
2023-01-13T19:42:41.544Z,26.50
2023-01-13T19:48:23.443Z,26.70
2023-01-13T19:51:00.657Z,26.50
2023-01-13T19:53:31.470Z,26.50
2023-01-13T19:59:09.461Z,26.60
2023-01-13T20:01:56.596Z,26.80
2023-01-13T20:08:23.024Z,25.90
2023-01-13T20:11:18.814Z,25.80
2023-01-13T20:13:45.998Z,25.90
2023-01-13T20:16:18.150Z,25.90
2023-01-13T20:18:51.885Z,26.40
2023-01-13T20:21:19.194Z,26.30
2023-01-13T20:23:49.167Z,27.10
2023-01-13T20:26:18.605Z,26.50
2023-01-13T20:28:51.450Z,26.30
2023-01-13T20:31:20.762Z,26.50
2023-01-13T20:33:51.506Z,27.50
2023-01-13T20:36:25.846Z,27.40
2023-01-13T20:38:56.570Z,28.20
2023-01-13T20:41:42.466Z,27.70
2023-01-13T20:44:12.032Z,28.20
2023-01-13T20:46:41.272Z,27.50
2023-01-13T20:49:11.063Z,28.90
2023-01-13T20:51:43.885Z,28.90
2023-01-13T20:54:11.633Z,29.30
2023-01-13T20:56:39.177Z,29.50
2023-01-13T20:59:08.480Z,29.10
2023-01-13T21:01:35.976Z,29.60
2023-01-13T21:04:03.770Z,29.70
2023-01-13T21:06:34.637Z,30.30
2023-01-13T21:09:01.898Z,31.00
2023-01-13T21:11:51.166Z,31.10
2023-01-13T21:14:43.616Z,30.40
2023-01-13T21:17:30.022Z,30.80
2023-01-13T21:19:57.419Z,31.50
2023-01-13T21:22:24.923Z,31.00
2023-01-13T21:24:52.129Z,30.40
2023-01-13T21:27:19.639Z,31.40
2023-01-13T21:29:54.050Z,31.80
2023-01-13T21:32:24.438Z,31.90
2023-01-13T21:34:51.745Z,32.50
2023-01-13T21:37:22.465Z,33.00
2023-01-13T21:39:49.767Z,33.10
2023-01-13T21:42:36.272Z,33.20
2023-01-13T21:45:21.991Z,32.90
2023-01-13T21:47:52.899Z,32.90
2023-01-13T21:50:21.292Z,34.10
2023-01-13T21:52:49.448Z,34.70
2023-01-13T21:55:28.598Z,34.30
2023-01-13T21:58:00.928Z,35.20
2023-01-13T22:00:29.113Z,36.00
2023-01-13T22:03:00.981Z,36.30
2023-01-13T22:05:28.585Z,37.50
2023-01-13T22:07:55.735Z,38.40
2023-01-13T22:10:27.460Z,38.10
2023-01-13T22:13:02.592Z,37.90
2023-01-13T22:15:34.145Z,38.70
2023-01-13T22:18:10.364Z,38.60
2023-01-13T22:20:42.577Z,38.50
2023-01-13T22:23:14.440Z,38.70
2023-01-13T22:25:52.912Z,38.20
2023-01-13T22:28:36.272Z,39.00
2023-01-13T22:31:09.876Z,39.20
2023-01-13T22:33:37.555Z,39.40
2023-01-13T22:36:07.292Z,40.00
2023-01-13T22:38:35.397Z,40.40
2023-01-13T22:41:06.899Z,41.00
2023-01-13T22:43:45.182Z,40.70
2023-01-13T22:46:13.568Z,40.80
2023-01-13T22:48:40.918Z,41.20
2023-01-13T22:51:12.007Z,41.70
2023-01-13T22:53:42.630Z,42.40
2023-01-13T22:56:23.071Z,43.30
2023-01-13T22:58:57.007Z,44.00
2023-01-13T23:01:28.800Z,45.20
2023-01-13T23:04:07.386Z,45.70
2023-01-13T23:06:39.584Z,46.50
2023-01-13T23:09:10.201Z,46.70
2023-01-13T23:11:37.761Z,46.90
2023-01-13T23:14:07.069Z,48.10
2023-01-13T23:16:35.160Z,49.50
2023-01-13T23:19:02.855Z,50.10
2023-01-13T23:21:31.125Z,50.80
2023-01-13T23:24:08.764Z,50.40
2023-01-13T23:26:36.171Z,50.90
2023-01-13T23:29:06.284Z,51.10
2023-01-13T23:32:01.267Z,51.20
2023-01-13T23:34:29.145Z,51.20
2023-01-13T23:36:56.470Z,51.80
2023-01-13T23:39:27.033Z,52.40
2023-01-13T23:41:55.066Z,52.30
2023-01-13T23:44:22.471Z,51.70
2023-01-13T23:46:53.424Z,52.30
2023-01-13T23:49:21.293Z,52.30
2023-01-13T23:51:51.708Z,52.90
2023-01-13T23:54:22.470Z,51.80
2023-01-13T23:56:49.882Z,52.20
2023-01-13T23:59:17.167Z,53.20
